Time;durP1;ratioP1;P1;durP2;ratioP2;P2;SDS_P1;SDS_P2;PMS_P1;PMS_P2;Temp;Humidity;BMP_temperature;BMP_pressure;BME280_temperature;BME280_humidity;BME280_pressure;Samples;Min_cycle;Max_cycle;Signal;HPM_P1;HPM_P2
2021/10/20 00:02:17;;;;;;;0.10;0.10;;;;;;;;;;4907261;29;20286;-87
2021/10/20 00:04:43;;;;;;;0.10;0.10;;;;;;;;;;4907030;29;20039;-88
2021/10/20 00:07:09;;;;;;;0.10;0.10;;;;;;;;;;4922972;29;20043;-87
2021/10/20 00:09:35;;;;;;;0.20;0.20;;;;;;;;;;4907289;29;20131;-88
2021/10/20 00:12:01;;;;;;;0.10;0.10;;;;;;;;;;4907372;29;20050;-88
2021/10/20 00:14:27;;;;;;;0.10;0.10;;;;;;;;;;4938753;29;20043;-88
2021/10/20 00:16:52;;;;;;;0.10;0.10;;;;;;;;;;4938335;29;20451;-88
2021/10/20 00:19:18;;;;;;;0.17;0.17;;;;;;;;;;4938356;29;20169;-89
2021/10/20 00:21:44;;;;;;;0.10;0.10;;;;;;;;;;4906839;29;20043;-88
2021/10/20 00:24:10;;;;;;;0.22;0.22;;;;;;;;;;4922369;29;20117;-88
2021/10/20 00:26:37;;;;;;;0.10;0.10;;;;;;;;;;4938005;29;20039;-88
2021/10/20 00:29:03;;;;;;;0.10;0.10;;;;;;;;;;4906760;29;20043;-87
2021/10/20 00:31:29;;;;;;;0.20;0.20;;;;;;;;;;4922229;29;20047;-88
2021/10/20 00:33:55;;;;;;;0.10;0.10;;;;;;;;;;4922545;29;20046;-88
2021/10/20 00:36:21;;;;;;;0.10;0.10;;;;;;;;;;4922238;29;20103;-89
2021/10/20 00:38:47;;;;;;;0.10;0.10;;;;;;;;;;4922141;29;20043;-89
2021/10/20 00:41:13;;;;;;;0.10;0.10;;;;;;;;;;4922096;29;20122;-88
2021/10/20 00:43:39;;;;;;;0.30;0.30;;;;;;;;;;4922038;29;20051;-88
2021/10/20 00:46:05;;;;;;;0.10;0.10;;;;;;;;;;4921987;29;20039;-89
2021/10/20 00:48:31;;;;;;;0.10;0.10;;;;;;;;;;4921949;29;20043;-88
2021/10/20 00:50:57;;;;;;;0.22;0.22;;;;;;;;;;4906062;29;20041;-88
2021/10/20 00:53:23;;;;;;;0.10;0.10;;;;;;;;;;4922140;29;20043;-88
2021/10/20 00:55:49;;;;;;;0.10;0.10;;;;;;;;;;4921987;29;20050;-88
2021/10/20 00:58:15;;;;;;;0.10;0.10;;;;;;;;;;4922185;29;20055;-88
2021/10/20 01:00:41;;;;;;;0.10;0.10;;;;;;;;;;4922128;29;20039;-88
2021/10/20 01:03:07;;;;;;;0.10;0.10;;;;;;;;;;4937461;29;20054;-88
2021/10/20 01:05:34;;;;;;;0.10;0.10;;;;;;;;;;4921748;29;20190;-88
2021/10/20 01:08:01;;;;;;;0.10;0.10;;;;;;;;;;4906715;29;20071;-88
2021/10/20 01:10:27;;;;;;;0.70;0.40;;;;;;;;;;4920813;29;20042;-88
2021/10/20 01:12:53;;;;;;;1.27;0.52;;;;;;;;;;4921813;29;20047;-88
2021/10/20 01:15:24;;;;;;;0.20;0.20;;;;;;;;;;4921403;29;20071;-88
2021/10/20 01:17:50;;;;;;;0.10;0.10;;;;;;;;;;4905801;29;20074;-88
2021/10/20 01:20:16;;;;;;;0.20;0.20;;;;;;;;;;4921783;29;20101;-88
2021/10/20 01:22:42;;;;;;;0.47;0.15;;;;;;;;;;4921496;29;20039;-87
2021/10/20 01:25:09;;;;;;;0.10;0.10;;;;;;;;;;4937043;29;20050;-89
2021/10/20 01:27:35;;;;;;;0.10;0.10;;;;;;;;;;4921367;29;20052;-88
2021/10/20 01:30:01;;;;;;;0.10;0.10;;;;;;;;;;4936955;29;20079;-88
2021/10/20 01:32:27;;;;;;;0.20;0.20;;;;;;;;;;4921323;29;20075;-88
2021/10/20 01:34:53;;;;;;;0.10;0.10;;;;;;;;;;4905240;29;20058;-87
2021/10/20 01:37:19;;;;;;;0.20;0.20;;;;;;;;;;4921181;29;20130;-88
2021/10/20 01:39:45;;;;;;;0.10;0.10;;;;;;;;;;4905448;29;20126;-88
2021/10/20 01:42:11;;;;;;;0.30;0.30;;;;;;;;;;4936863;29;20054;-88
2021/10/20 01:44:37;;;;;;;0.10;0.10;;;;;;;;;;4905149;29;20047;-88
2021/10/20 01:47:04;;;;;;;0.20;0.20;;;;;;;;;;4921472;29;20039;-88
2021/10/20 01:49:30;;;;;;;0.10;0.10;;;;;;;;;;4921071;29;20094;-88
2021/10/20 01:51:56;;;;;;;0.10;0.10;;;;;;;;;;4920868;29;20443;-88
2021/10/20 01:54:22;;;;;;;0.20;0.20;;;;;;;;;;4920939;29;20069;-88
2021/10/20 01:56:48;;;;;;;0.10;0.10;;;;;;;;;;4921256;29;20046;-87
2021/10/20 01:59:14;;;;;;;0.10;0.10;;;;;;;;;;4920974;29;20082;-87
2021/10/20 02:01:40;;;;;;;0.20;0.20;;;;;;;;;;4921005;29;20047;-88
2021/10/20 02:04:10;;;;;;;0.10;0.10;;;;;;;;;;4936666;29;20050;-88
2021/10/20 02:06:36;;;;;;;0.10;0.10;;;;;;;;;;4917601;29;20055;-88
2021/10/20 02:09:02;;;;;;;0.10;0.10;;;;;;;;;;4932019;29;20343;-87
2021/10/20 02:11:28;;;;;;;0.38;0.30;;;;;;;;;;4920901;29;20050;-87
2021/10/20 02:13:54;;;;;;;0.10;0.10;;;;;;;;;;4921074;29;20047;-87
2021/10/20 02:16:20;;;;;;;0.10;0.10;;;;;;;;;;4936413;29;20129;-87
2021/10/20 02:18:46;;;;;;;0.10;0.10;;;;;;;;;;4920836;29;20043;-87
2021/10/20 02:21:12;;;;;;;0.10;0.10;;;;;;;;;;4920996;28;20046;-88
2021/10/20 02:23:38;;;;;;;0.10;0.10;;;;;;;;;;4940652;29;20047;-87
2021/10/20 02:26:04;;;;;;;0.10;0.10;;;;;;;;;;4909031;29;20043;-87
2021/10/20 02:28:31;;;;;;;0.20;0.20;;;;;;;;;;4940491;29;20050;-87
2021/10/20 02:30:57;;;;;;;0.30;0.30;;;;;;;;;;4924285;29;20050;-87
2021/10/20 02:33:23;;;;;;;0.10;0.10;;;;;;;;;;4940326;29;20154;-87
2021/10/20 02:35:49;;;;;;;0.10;0.10;;;;;;;;;;4924493;29;20050;-88
2021/10/20 02:38:15;;;;;;;0.10;0.10;;;;;;;;;;4924479;29;20051;-88
2021/10/20 02:40:41;;;;;;;0.15;0.15;;;;;;;;;;4924490;29;20039;-88
2021/10/20 02:43:07;;;;;;;0.10;0.10;;;;;;;;;;4908726;29;20074;-88
2021/10/20 02:45:33;;;;;;;0.20;0.20;;;;;;;;;;4924218;29;20108;-88
2021/10/20 02:47:59;;;;;;;0.10;0.10;;;;;;;;;;4908557;29;20079;-87
2021/10/20 02:50:28;;;;;;;0.20;0.20;;;;;;;;;;4940082;29;20117;-87
2021/10/20 02:52:55;;;;;;;0.32;0.32;;;;;;;;;;4908824;29;20046;-87
2021/10/20 02:55:21;;;;;;;0.13;0.13;;;;;;;;;;4939845;29;20038;-87
2021/10/20 02:57:46;;;;;;;0.30;0.30;;;;;;;;;;4940019;29;20043;-87
2021/10/20 03:00:13;;;;;;;0.10;0.10;;;;;;;;;;4939829;29;20039;-87
2021/10/20 03:02:39;;;;;;;0.10;0.10;;;;;;;;;;4908389;29;20058;-88
2021/10/20 03:05:05;;;;;;;0.40;0.40;;;;;;;;;;4939585;29;20486;-88
2021/10/20 03:07:31;;;;;;;0.60;0.20;;;;;;;;;;4923861;29;20036;-88
2021/10/20 03:09:57;;;;;;;0.28;0.28;;;;;;;;;;4924055;29;20530;-87
2021/10/20 03:12:23;;;;;;;0.10;0.10;;;;;;;;;;4908047;29;20085;-87
2021/10/20 03:14:49;;;;;;;0.10;0.10;;;;;;;;;;4923940;29;20082;-87
2021/10/20 03:17:16;;;;;;;0.55;0.55;;;;;;;;;;4923753;29;20082;-87
2021/10/20 03:19:42;;;;;;;0.10;0.10;;;;;;;;;;4923898;29;20043;-87
2021/10/20 03:22:08;;;;;;;0.10;0.10;;;;;;;;;;4923898;29;20047;-87
2021/10/20 03:24:34;;;;;;;0.10;0.10;;;;;;;;;;4939250;29;20515;-87
2021/10/20 03:27:01;;;;;;;0.10;0.10;;;;;;;;;;4923696;29;20082;-87
2021/10/20 03:29:27;;;;;;;0.15;0.15;;;;;;;;;;4908012;29;20127;-87
2021/10/20 03:31:52;;;;;;;0.17;0.17;;;;;;;;;;4923449;29;20542;-86
2021/10/20 03:34:18;;;;;;;0.35;0.35;;;;;;;;;;4922856;29;20043;-86
2021/10/20 03:36:44;;;;;;;0.28;0.28;;;;;;;;;;4939602;29;20090;-86
2021/10/20 03:39:10;;;;;;;0.10;0.10;;;;;;;;;;4939275;29;20039;-87
2021/10/20 03:41:36;;;;;;;0.10;0.10;;;;;;;;;;4923459;29;20059;-87
2021/10/20 03:44:02;;;;;;;1.45;0.30;;;;;;;;;;4923099;29;20091;-87
2021/10/20 03:46:28;;;;;;;0.20;0.20;;;;;;;;;;4907764;29;20043;-87
2021/10/20 03:48:54;;;;;;;0.10;0.10;;;;;;;;;;4923184;29;20571;-88
2021/10/20 03:51:20;;;;;;;0.10;0.10;;;;;;;;;;4938943;29;20490;-87
2021/10/20 03:53:46;;;;;;;0.40;0.40;;;;;;;;;;4938836;29;20126;-88
2021/10/20 03:56:12;;;;;;;0.80;0.40;;;;;;;;;;4923413;29;20043;-88
2021/10/20 03:58:38;;;;;;;0.10;0.10;;;;;;;;;;4922940;29;20498;-88
2021/10/20 04:01:04;;;;;;;0.10;0.10;;;;;;;;;;4923028;29;20426;-87
2021/10/20 04:03:30;;;;;;;0.10;0.10;;;;;;;;;;4938945;29;20047;-87
2021/10/20 04:05:56;;;;;;;0.10;0.10;;;;;;;;;;4922924;29;20043;-88
2021/10/20 04:08:22;;;;;;;0.10;0.10;;;;;;;;;;4938644;29;20447;-87
2021/10/20 04:10:48;;;;;;;0.10;0.10;;;;;;;;;;4922746;29;20439;-88
2021/10/20 04:13:14;;;;;;;0.10;0.10;;;;;;;;;;4922702;29;20047;-88
2021/10/20 04:15:40;;;;;;;0.10;0.10;;;;;;;;;;4922912;29;20410;-88
2021/10/20 04:18:06;;;;;;;0.20;0.20;;;;;;;;;;4922666;29;20039;-88
2021/10/20 04:20:32;;;;;;;0.38;0.20;;;;;;;;;;4922692;29;20043;-87
2021/10/20 04:22:58;;;;;;;0.10;0.10;;;;;;;;;;4922528;29;20187;-87
2021/10/20 04:25:25;;;;;;;0.30;0.30;;;;;;;;;;4938119;29;20151;-88
2021/10/20 04:27:51;;;;;;;0.10;0.10;;;;;;;;;;4922260;29;20113;-87
2021/10/20 04:30:17;;;;;;;0.20;0.20;;;;;;;;;;4922506;29;20050;-87
2021/10/20 04:32:43;;;;;;;0.10;0.10;;;;;;;;;;4922546;29;20055;-87
2021/10/20 04:35:10;;;;;;;0.10;0.10;;;;;;;;;;4922013;29;20525;-88
2021/10/20 04:37:36;;;;;;;0.20;0.20;;;;;;;;;;4938016;29;20101;-88
2021/10/20 04:40:02;;;;;;;0.10;0.10;;;;;;;;;;4922165;29;20062;-88
2021/10/20 04:42:29;;;;;;;0.43;0.43;;;;;;;;;;4921900;29;20134;-87
2021/10/20 04:44:55;;;;;;;0.10;0.10;;;;;;;;;;4906187;29;20047;-88
2021/10/20 04:47:21;;;;;;;0.10;0.10;;;;;;;;;;4937790;29;20471;-88
2021/10/20 04:49:47;;;;;;;0.40;0.40;;;;;;;;;;4922316;29;20127;-88
2021/10/20 04:52:13;;;;;;;0.20;0.20;;;;;;;;;;4922265;29;20075;-88
2021/10/20 04:54:39;;;;;;;0.10;0.10;;;;;;;;;;4921816;29;20079;-87
2021/10/20 04:57:05;;;;;;;0.20;0.20;;;;;;;;;;4921916;29;20054;-87
2021/10/20 04:59:32;;;;;;;0.20;0.20;;;;;;;;;;4921807;29;20415;-87
2021/10/20 05:01:58;;;;;;;0.10;0.10;;;;;;;;;;4921902;29;20054;-87
2021/10/20 05:04:24;;;;;;;0.10;0.10;;;;;;;;;;4937565;29;20427;-87
2021/10/20 05:06:50;;;;;;;0.20;0.20;;;;;;;;;;4937449;29;20035;-88
2021/10/20 05:09:16;;;;;;;0.10;0.10;;;;;;;;;;4922023;29;20046;-87
2021/10/20 05:11:42;;;;;;;0.30;0.30;;;;;;;;;;4937249;29;20070;-89
2021/10/20 05:14:08;;;;;;;0.15;0.15;;;;;;;;;;4921525;29;20082;-90
2021/10/20 05:16:34;;;;;;;0.20;0.20;;;;;;;;;;4921730;29;20082;-87
2021/10/20 05:19:00;;;;;;;0.30;0.30;;;;;;;;;;4921531;29;20039;-87
2021/10/20 05:21:26;;;;;;;0.15;0.15;;;;;;;;;;4937458;29;20054;-87
2021/10/20 05:23:52;;;;;;;0.20;0.20;;;;;;;;;;4921369;29;20083;-87
2021/10/20 05:26:18;;;;;;;0.52;0.32;;;;;;;;;;4905852;29;20043;-87
2021/10/20 05:28:44;;;;;;;0.13;0.13;;;;;;;;;;4921373;29;20043;-87
2021/10/20 05:31:10;;;;;;;0.10;0.10;;;;;;;;;;4921293;29;20039;-87
2021/10/20 05:33:36;;;;;;;0.10;0.10;;;;;;;;;;4905500;29;20431;-87
2021/10/20 05:36:02;;;;;;;0.80;0.40;;;;;;;;;;4936869;29;20135;-87
2021/10/20 05:38:28;;;;;;;0.20;0.20;;;;;;;;;;4937056;29;20079;-88
2021/10/20 05:40:54;;;;;;;1.10;1.10;;;;;;;;;;4921000;29;20050;-88
2021/10/20 05:43:20;;;;;;;0.63;0.50;;;;;;;;;;4905508;29;20051;-87
2021/10/20 05:45:47;;;;;;;0.30;0.30;;;;;;;;;;4921219;29;20046;-87
2021/10/20 05:48:14;;;;;;;0.43;0.20;;;;;;;;;;4921126;29;20071;-87
2021/10/20 05:50:40;;;;;;;0.20;0.20;;;;;;;;;;4921563;29;20094;-91
2021/10/20 05:53:06;;;;;;;0.20;0.20;;;;;;;;;;4936749;29;20118;-87
2021/10/20 05:55:32;;;;;;;0.52;0.30;;;;;;;;;;4936732;29;20035;-87
2021/10/20 05:57:58;;;;;;;0.30;0.30;;;;;;;;;;4920746;29;20128;-87
2021/10/20 06:00:24;;;;;;;0.10;0.10;;;;;;;;;;4936514;29;20094;-88
2021/10/20 06:02:50;;;;;;;0.20;0.20;;;;;;;;;;4920830;29;20039;-88
2021/10/20 06:05:16;;;;;;;0.20;0.20;;;;;;;;;;4936431;29;20047;-88
2021/10/20 06:07:42;;;;;;;0.40;0.40;;;;;;;;;;4905098;29;20479;-90
2021/10/20 06:10:09;;;;;;;0.75;0.25;;;;;;;;;;4920892;29;20102;-88
2021/10/20 06:12:35;;;;;;;0.40;0.40;;;;;;;;;;4921191;29;20066;-88
2021/10/20 06:15:01;;;;;;;0.20;0.20;;;;;;;;;;4939433;29;20047;-89
2021/10/20 06:17:27;;;;;;;0.22;0.20;;;;;;;;;;4920912;29;20074;-88
2021/10/20 06:19:53;;;;;;;0.20;0.20;;;;;;;;;;4905352;29;20051;-89
2021/10/20 06:22:19;;;;;;;0.20;0.20;;;;;;;;;;4920795;29;20079;-89
2021/10/20 06:24:45;;;;;;;0.10;0.10;;;;;;;;;;4936697;29;20051;-87
2021/10/20 06:27:11;;;;;;;0.10;0.10;;;;;;;;;;4920669;29;20538;-88
2021/10/20 06:29:37;;;;;;;0.52;0.45;;;;;;;;;;4920722;29;20237;-88
2021/10/20 06:32:03;;;;;;;0.20;0.20;;;;;;;;;;4920792;29;20049;-88
2021/10/20 06:34:29;;;;;;;0.40;0.40;;;;;;;;;;4920728;29;20039;-88
2021/10/20 06:36:55;;;;;;;0.13;0.13;;;;;;;;;;4920605;29;20054;-89
2021/10/20 06:39:21;;;;;;;0.20;0.20;;;;;;;;;;4905120;29;20479;-90
2021/10/20 06:41:48;;;;;;;1.13;0.38;;;;;;;;;;4905370;29;20059;-91
2021/10/20 06:44:14;;;;;;;0.30;0.30;;;;;;;;;;4921443;29;20082;-92
2021/10/20 06:46:40;;;;;;;0.17;0.17;;;;;;;;;;4920920;29;20110;-88
2021/10/20 06:49:06;;;;;;;0.20;0.20;;;;;;;;;;4920949;29;20040;-93
2021/10/20 06:51:32;;;;;;;0.20;0.20;;;;;;;;;;4921663;29;20195;-90
2021/10/20 06:53:58;;;;;;;0.20;0.20;;;;;;;;;;4920999;29;20047;-91
2021/10/20 06:56:24;;;;;;;0.20;0.20;;;;;;;;;;4922908;29;20051;-92
2021/10/20 06:58:50;;;;;;;0.22;0.22;;;;;;;;;;4921825;29;20051;-91
2021/10/20 07:01:16;;;;;;;0.10;0.10;;;;;;;;;;4921027;29;20050;-91
2021/10/20 07:03:43;;;;;;;0.28;0.20;;;;;;;;;;4905433;29;20182;-94
2021/10/20 07:06:09;;;;;;;0.73;0.73;;;;;;;;;;4921494;29;20391;-90
2021/10/20 07:08:35;;;;;;;0.20;0.20;;;;;;;;;;4921416;29;20039;-89
2021/10/20 07:11:01;;;;;;;0.10;0.10;;;;;;;;;;4940443;29;20039;-90
2021/10/20 07:13:27;;;;;;;0.15;0.15;;;;;;;;;;4923934;29;20061;-88
2021/10/20 07:15:53;;;;;;;0.30;0.30;;;;;;;;;;4922268;29;20051;-88
2021/10/20 07:18:20;;;;;;;0.10;0.10;;;;;;;;;;4940353;29;20074;-92
2021/10/20 07:20:46;;;;;;;1.02;1.00;;;;;;;;;;4924661;29;20127;-92
2021/10/20 07:23:12;;;;;;;0.30;0.30;;;;;;;;;;4956112;29;20410;-91
2021/10/20 07:25:38;;;;;;;0.10;0.10;;;;;;;;;;4940364;29;20482;-92
2021/10/20 07:28:04;;;;;;;0.10;0.10;;;;;;;;;;4924187;29;20043;-91
2021/10/20 07:30:30;;;;;;;0.25;0.25;;;;;;;;;;4940149;29;20059;-93
2021/10/20 07:32:56;;;;;;;0.20;0.20;;;;;;;;;;4940956;29;20035;-91
2021/10/20 07:35:22;;;;;;;0.25;0.25;;;;;;;;;;4956006;29;20379;-91
2021/10/20 07:37:48;;;;;;;0.20;0.20;;;;;;;;;;4940082;29;20035;-91
2021/10/20 07:40:15;;;;;;;0.45;0.45;;;;;;;;;;4940056;29;20046;-92
2021/10/20 07:42:44;;;;;;;0.20;0.20;;;;;;;;;;4939471;29;20051;-92
2021/10/20 07:45:18;;;;;;;0.50;0.50;;;;;;;;;;4940438;29;20090;-92
2021/10/20 07:47:46;;;;;;;0.47;0.38;;;;;;;;;;4939926;29;20406;-91
2021/10/20 07:50:12;;;;;;;0.32;0.30;;;;;;;;;;4939906;29;20042;-92
2021/10/20 07:52:38;;;;;;;0.57;0.50;;;;;;;;;;4923949;29;20035;-90
2021/10/20 07:55:04;;;;;;;0.30;0.30;;;;;;;;;;4939403;29;20130;-92
2021/10/20 07:57:32;;;;;;;0.50;0.50;;;;;;;;;;4939609;29;20565;-92
2021/10/20 07:59:58;;;;;;;0.10;0.10;;;;;;;;;;4940585;29;20102;-93
2021/10/20 08:02:24;;;;;;;2.45;0.75;;;;;;;;;;4924325;29;20062;-93
2021/10/20 08:04:50;;;;;;;0.10;0.10;;;;;;;;;;4928983;29;20051;-92
2021/10/20 08:07:16;;;;;;;1.00;1.00;;;;;;;;;;4908057;29;20150;-91
2021/10/20 08:09:46;;;;;;;0.52;0.52;;;;;;;;;;4940107;29;20119;-90
2021/10/20 08:12:12;;;;;;;0.10;0.10;;;;;;;;;;4923039;29;20043;-90
2021/10/20 08:14:41;;;;;;;0.20;0.20;;;;;;;;;;4924020;29;20043;-91
2021/10/20 08:17:08;;;;;;;0.10;0.10;;;;;;;;;;4923366;29;20051;-89
2021/10/20 08:19:34;;;;;;;0.10;0.10;;;;;;;;;;4938187;29;20057;-91
2021/10/20 08:22:00;;;;;;;0.10;0.10;;;;;;;;;;4922968;29;20051;-91
2021/10/20 08:24:27;;;;;;;0.30;0.30;;;;;;;;;;4922705;29;20469;-92
2021/10/20 08:26:53;;;;;;;0.10;0.10;;;;;;;;;;4922887;29;20069;-92
2021/10/20 08:29:19;;;;;;;0.28;0.28;;;;;;;;;;4938562;29;20043;-92
2021/10/20 08:31:45;;;;;;;0.20;0.20;;;;;;;;;;4922893;29;20039;-91
2021/10/20 08:34:11;;;;;;;0.30;0.30;;;;;;;;;;4922935;29;20082;-90
2021/10/20 08:36:38;;;;;;;0.43;0.40;;;;;;;;;;4923171;29;20483;-91
2021/10/20 08:39:04;;;;;;;0.20;0.20;;;;;;;;;;4922257;29;20089;-89
2021/10/20 08:41:30;;;;;;;0.32;0.32;;;;;;;;;;4922300;28;20055;-90
2021/10/20 08:43:56;;;;;;;0.17;0.17;;;;;;;;;;4907004;29;20055;-91
2021/10/20 08:46:23;;;;;;;0.13;0.13;;;;;;;;;;4906866;29;20047;-91
2021/10/20 08:48:49;;;;;;;0.40;0.40;;;;;;;;;;4922755;29;20448;-91
2021/10/20 08:51:15;;;;;;;0.20;0.20;;;;;;;;;;4922314;29;20109;-91
2021/10/20 08:53:41;;;;;;;0.10;0.10;;;;;;;;;;4922911;29;20051;-91
2021/10/20 08:56:07;;;;;;;0.20;0.20;;;;;;;;;;4922326;29;20043;-90
2021/10/20 08:58:33;;;;;;;0.10;0.10;;;;;;;;;;4937694;29;20039;-90
2021/10/20 09:00:59;;;;;;;0.10;0.10;;;;;;;;;;4938257;29;20043;-92
2021/10/20 09:03:25;;;;;;;0.10;0.10;;;;;;;;;;4922083;29;20047;-92
2021/10/20 09:05:51;;;;;;;0.17;0.17;;;;;;;;;;4921871;29;20683;-88
2021/10/20 09:08:17;;;;;;;0.10;0.10;;;;;;;;;;4921739;29;20036;-89
2021/10/20 09:10:43;;;;;;;0.10;0.10;;;;;;;;;;4921775;29;20546;-88
2021/10/20 09:13:09;;;;;;;0.10;0.10;;;;;;;;;;4937347;29;20529;-88
2021/10/20 09:15:35;;;;;;;0.17;0.17;;;;;;;;;;4921800;29;20495;-88
2021/10/20 09:18:05;;;;;;;0.20;0.20;;;;;;;;;;4921743;29;20039;-88
2021/10/20 09:20:33;;;;;;;0.20;0.20;;;;;;;;;;4922215;29;20042;-89
2021/10/20 09:23:02;;;;;;;0.10;0.10;;;;;;;;;;4921149;29;20516;-89
2021/10/20 09:25:35;;;;;;;0.22;0.22;;;;;;;;;;4921653;29;20047;-92
2021/10/20 09:28:01;;;;;;;0.20;0.20;;;;;;;;;;4921964;29;20481;-87
2021/10/20 09:30:28;;;;;;;0.30;0.30;;;;;;;;;;4922121;28;20063;-89
2021/10/20 09:32:54;;;;;;;0.75;0.57;;;;;;;;;;4920859;29;20039;-89
2021/10/20 09:35:20;;;;;;;0.10;0.10;;;;;;;;;;4921508;29;20047;-89
2021/10/20 09:37:46;;;;;;;0.30;0.30;;;;;;;;;;4921726;29;20054;-91
2021/10/20 09:40:13;;;;;;;0.30;0.30;;;;;;;;;;4905997;29;20044;-92
2021/10/20 09:42:48;;;;;;;0.30;0.30;;;;;;;;;;4921692;29;20059;-88
2021/10/20 09:45:14;;;;;;;0.20;0.20;;;;;;;;;;4921443;29;20063;-88
2021/10/20 09:47:40;;;;;;;0.20;0.20;;;;;;;;;;4921712;29;20071;-95
2021/10/20 09:50:07;;;;;;;0.88;0.60;;;;;;;;;;4938015;29;20462;-92
2021/10/20 09:52:43;;;;;;;0.20;0.20;;;;;;;;;;4921725;29;20042;-91
2021/10/20 09:55:10;;;;;;;0.17;0.17;;;;;;;;;;4926338;29;20043;-92
2021/10/20 09:57:36;;;;;;;0.30;0.30;;;;;;;;;;4929003;29;20047;-93
2021/10/20 10:00:02;;;;;;;0.10;0.10;;;;;;;;;;4924888;29;20051;-91
2021/10/20 10:02:30;;;;;;;0.17;0.17;;;;;;;;;;4921391;29;20047;-91
2021/10/20 10:04:56;;;;;;;0.10;0.10;;;;;;;;;;4936952;29;20043;-89
2021/10/20 10:07:22;;;;;;;0.20;0.20;;;;;;;;;;4937298;29;20128;-91
2021/10/20 10:09:48;;;;;;;0.20;0.20;;;;;;;;;;4921597;29;20043;-90
2021/10/20 10:12:15;;;;;;;0.38;0.38;;;;;;;;;;4921647;29;20043;-90
2021/10/20 10:14:55;;;;;;;0.10;0.10;;;;;;;;;;4936891;29;20058;-90
2021/10/20 10:17:21;;;;;;;0.30;0.30;;;;;;;;;;4921271;29;20051;-90
2021/10/20 10:19:47;;;;;;;0.32;0.30;;;;;;;;;;4937959;29;20103;-90
2021/10/20 10:22:22;;;;;;;0.20;0.20;;;;;;;;;;4938366;29;20151;-90
2021/10/20 10:24:48;;;;;;;0.10;0.10;;;;;;;;;;4932388;29;20043;-90
2021/10/20 10:27:14;;;;;;;0.20;0.20;;;;;;;;;;4935519;29;20047;-90
2021/10/20 10:29:47;;;;;;;0.20;0.20;;;;;;;;;;4951022;29;20078;-90
2021/10/20 10:32:13;;;;;;;;;;;;;;;;;;4961222;28;20041;-91
2021/10/20 10:34:44;;;;;;;0.40;0.40;;;;;;;;;;4944382;29;19918;-90
2021/10/20 10:37:10;;;;;;;0.20;0.20;;;;;;;;;;4922717;29;20062;-90
2021/10/20 10:39:36;;;;;;;0.52;0.40;;;;;;;;;;4932613;29;20046;-90
2021/10/20 10:42:05;;;;;;;0.38;0.38;;;;;;;;;;4905134;28;20051;-90
2021/10/20 10:44:32;;;;;;;0.20;0.20;;;;;;;;;;4940180;29;20503;-90
2021/10/20 10:47:05;;;;;;;0.20;0.20;;;;;;;;;;4924298;29;20047;-90
2021/10/20 10:49:38;;;;;;;0.43;0.43;;;;;;;;;;4909549;29;20130;-91
2021/10/20 10:52:17;;;;;;;0.45;0.45;;;;;;;;;;4924565;29;20039;-91
2021/10/20 10:54:53;;;;;;;0.20;0.20;;;;;;;;;;4917480;29;20047;-91
2021/10/20 10:57:19;;;;;;;0.10;0.10;;;;;;;;;;4924639;29;20075;-91
2021/10/20 10:59:55;;;;;;;0.30;0.30;;;;;;;;;;4908918;29;20050;-90
2021/10/20 11:02:38;;;;;;;0.10;0.10;;;;;;;;;;4924352;29;20082;-89
2021/10/20 11:05:04;;;;;;;0.65;0.55;;;;;;;;;;4924455;29;20055;-91
2021/10/20 11:07:30;;;;;;;0.50;0.50;;;;;;;;;;4940170;29;20402;-91
2021/10/20 11:09:56;;;;;;;0.10;0.10;;;;;;;;;;4924360;29;20043;-91
2021/10/20 11:12:24;;;;;;;0.10;0.10;;;;;;;;;;4908390;29;20162;-90
2021/10/20 11:14:51;;;;;;;0.20;0.20;;;;;;;;;;4924222;29;20035;-91
2021/10/20 11:17:17;;;;;;;0.13;0.13;;;;;;;;;;4924299;29;20054;-89
2021/10/20 11:19:43;;;;;;;0.40;0.32;;;;;;;;;;4908530;29;20514;-92
2021/10/20 11:22:09;;;;;;;0.10;0.10;;;;;;;;;;4924303;29;20047;-92
2021/10/20 11:24:36;;;;;;;0.10;0.10;;;;;;;;;;4908074;29;20055;-91
2021/10/20 11:27:05;;;;;;;0.20;0.20;;;;;;;;;;4914883;29;20119;-91
2021/10/20 11:29:46;;;;;;;0.10;0.10;;;;;;;;;;4908923;29;20409;-92
2021/10/20 11:32:12;;;;;;;0.20;0.20;;;;;;;;;;4923973;29;20054;-90
2021/10/20 11:34:40;;;;;;;0.10;0.10;;;;;;;;;;4923741;29;20047;-90
2021/10/20 11:37:07;;;;;;;0.30;0.30;;;;;;;;;;4923523;29;20061;-89
2021/10/20 11:39:33;;;;;;;0.25;0.25;;;;;;;;;;4923553;29;20110;-90
2021/10/20 11:42:00;;;;;;;0.30;0.30;;;;;;;;;;4907575;29;20347;-90
2021/10/20 11:44:26;;;;;;;0.15;0.15;;;;;;;;;;4907345;29;20079;-90
2021/10/20 11:46:55;;;;;;;0.20;0.20;;;;;;;;;;4939429;29;20040;-90
2021/10/20 11:49:21;;;;;;;0.10;0.10;;;;;;;;;;4938998;29;20491;-87
2021/10/20 11:51:47;;;;;;;0.30;0.30;;;;;;;;;;4923711;29;20126;-92
2021/10/20 11:54:13;;;;;;;0.30;0.30;;;;;;;;;;4924341;29;20082;-87
2021/10/20 11:56:38;;;;;;;0.13;0.13;;;;;;;;;;4923292;29;20074;-89
2021/10/20 11:59:18;;;;;;;0.22;0.22;;;;;;;;;;4938747;29;20182;-90
2021/10/20 12:01:44;;;;;;;0.17;0.17;;;;;;;;;;4923078;29;20079;-88
2021/10/20 12:04:09;;;;;;;0.20;0.20;;;;;;;;;;4922887;29;20399;-89
2021/10/20 12:06:35;;;;;;;0.10;0.10;;;;;;;;;;4938675;29;20070;-88
2021/10/20 12:09:02;;;;;;;0.28;0.28;;;;;;;;;;4906908;29;20043;-89
2021/10/20 12:11:28;;;;;;;0.30;0.30;;;;;;;;;;4922970;29;20087;-89
2021/10/20 12:13:54;;;;;;;0.30;0.30;;;;;;;;;;4907137;29;20083;-88
2021/10/20 12:16:20;;;;;;;0.20;0.20;;;;;;;;;;4906782;29;20047;-89
2021/10/20 12:18:46;;;;;;;0.10;0.10;;;;;;;;;;4906797;29;20045;-89
2021/10/20 12:21:13;;;;;;;0.40;0.40;;;;;;;;;;4922723;29;20122;-89
2021/10/20 12:23:41;;;;;;;0.20;0.20;;;;;;;;;;4907111;29;20039;-89
2021/10/20 12:26:07;;;;;;;0.20;0.20;;;;;;;;;;4922472;29;20475;-90
2021/10/20 12:28:33;;;;;;;0.20;0.20;;;;;;;;;;4922664;29;20042;-92
2021/10/20 12:31:09;;;;;;;0.10;0.10;;;;;;;;;;4922632;29;20043;-91
2021/10/20 12:33:37;;;;;;;0.30;0.30;;;;;;;;;;4922643;29;20047;-87
2021/10/20 12:36:04;;;;;;;0.30;0.30;;;;;;;;;;4938057;29;20079;-91
2021/10/20 12:38:30;;;;;;;0.20;0.20;;;;;;;;;;4922556;29;20047;-89
2021/10/20 12:40:56;;;;;;;0.20;0.20;;;;;;;;;;4922463;29;20506;-89
2021/10/20 12:43:22;;;;;;;0.10;0.10;;;;;;;;;;4937597;29;20069;-91
2021/10/20 12:45:49;;;;;;;0.50;0.50;;;;;;;;;;4922215;29;20506;-90
2021/10/20 12:48:15;;;;;;;0.20;0.20;;;;;;;;;;4906471;29;20487;-92
2021/10/20 12:50:42;;;;;;;0.20;0.20;;;;;;;;;;4906720;29;20035;-89
2021/10/20 12:53:13;;;;;;;0.20;0.20;;;;;;;;;;4922123;29;20043;-89
2021/10/20 12:55:39;;;;;;;0.17;0.17;;;;;;;;;;4906994;29;20035;-92
2021/10/20 12:58:11;;;;;;;0.50;0.50;;;;;;;;;;4906855;29;20090;-91
2021/10/20 13:00:36;;;;;;;0.57;0.57;;;;;;;;;;4922561;29;20089;-91
2021/10/20 13:03:02;;;;;;;0.80;0.45;;;;;;;;;;4922468;29;20503;-92
2021/10/20 13:05:28;;;;;;;0.10;0.10;;;;;;;;;;4906217;28;20403;-92
2021/10/20 13:07:55;;;;;;;0.10;0.10;;;;;;;;;;4938133;29;20388;-91
2021/10/20 13:10:21;;;;;;;0.10;0.10;;;;;;;;;;4937983;29;20047;-91
2021/10/20 13:12:50;;;;;;;0.20;0.20;;;;;;;;;;4938493;29;20039;-93
2021/10/20 13:15:16;;;;;;;0.10;0.10;;;;;;;;;;4919962;29;20039;-92
2021/10/20 13:17:42;;;;;;;0.10;0.10;;;;;;;;;;4923003;29;20043;-92
2021/10/20 13:20:10;;;;;;;0.80;0.80;;;;;;;;;;4922594;29;20047;-93
2021/10/20 13:22:36;;;;;;;0.20;0.20;;;;;;;;;;4908176;29;20111;-93
2021/10/20 13:25:04;;;;;;;0.20;0.20;;;;;;;;;;4938767;29;20554;-96
2021/10/20 13:27:30;;;;;;;0.10;0.10;;;;;;;;;;4907103;29;20043;-92
2021/10/20 13:29:56;;;;;;;0.20;0.20;;;;;;;;;;4921936;29;20044;-92
2021/10/20 13:32:22;;;;;;;0.28;0.28;;;;;;;;;;4922146;29;20133;-91
2021/10/20 13:34:48;;;;;;;0.20;0.20;;;;;;;;;;4906554;29;20047;-92
2021/10/20 13:37:14;;;;;;;0.10;0.10;;;;;;;;;;4922081;29;20066;-91
2021/10/20 13:39:40;;;;;;;0.10;0.10;;;;;;;;;;4905714;29;20517;-91
2021/10/20 13:42:06;;;;;;;0.20;0.20;;;;;;;;;;4905535;29;20055;-91
2021/10/20 13:44:32;;;;;;;0.20;0.20;;;;;;;;;;4921558;29;20047;-91
2021/10/20 13:47:00;;;;;;;0.32;0.32;;;;;;;;;;4921314;29;20039;-91
2021/10/20 13:49:26;;;;;;;0.10;0.10;;;;;;;;;;4905930;29;20039;-91
2021/10/20 13:51:52;;;;;;;0.20;0.20;;;;;;;;;;4921339;29;20094;-91
2021/10/20 13:54:18;;;;;;;1.10;0.20;;;;;;;;;;4905968;29;20047;-92
2021/10/20 13:56:44;;;;;;;0.30;0.20;;;;;;;;;;4921434;29;20086;-91
2021/10/20 13:59:12;;;;;;;0.38;0.38;;;;;;;;;;4905933;29;20054;-92
2021/10/20 14:01:38;;;;;;;0.30;0.30;;;;;;;;;;4921661;29;20191;-92
2021/10/20 14:04:03;;;;;;;0.30;0.30;;;;;;;;;;4921530;29;20558;-91
2021/10/20 14:06:30;;;;;;;0.10;0.10;;;;;;;;;;4922062;29;20043;-93
2021/10/20 14:08:56;;;;;;;0.10;0.10;;;;;;;;;;4921675;29;20117;-89
2021/10/20 14:11:22;;;;;;;0.30;0.30;;;;;;;;;;4921614;29;20070;-91
2021/10/20 14:13:48;;;;;;;0.20;0.20;;;;;;;;;;4921595;29;20050;-92
2021/10/20 14:16:14;;;;;;;0.20;0.20;;;;;;;;;;4937286;29;20561;-92
2021/10/20 14:18:43;;;;;;;0.30;0.30;;;;;;;;;;4921576;29;20043;-91
2021/10/20 14:21:09;;;;;;;0.63;0.50;;;;;;;;;;4905487;29;20479;-92
2021/10/20 14:23:36;;;;;;;0.20;0.20;;;;;;;;;;4921227;29;20098;-91
2021/10/20 14:26:03;;;;;;;0.20;0.20;;;;;;;;;;4905854;29;20075;-91
2021/10/20 14:28:29;;;;;;;0.10;0.10;;;;;;;;;;4921440;29;20060;-91
2021/10/20 14:30:54;;;;;;;0.90;0.50;;;;;;;;;;4906139;29;20043;-93
2021/10/20 14:33:20;;;;;;;0.10;0.10;;;;;;;;;;4906080;29;20490;-92
2021/10/20 14:35:46;;;;;;;0.10;0.10;;;;;;;;;;4921638;29;20407;-91
2021/10/20 14:38:12;;;;;;;0.20;0.20;;;;;;;;;;4905445;29;20079;-92
2021/10/20 14:40:40;;;;;;;0.10;0.10;;;;;;;;;;4937473;29;20133;-92